Terminal Aerodrome Forecast
Issued by NWS Denver/Boulder, CO

Home | Current Version | Previous Version | Text Only | Print | Product List | Glossary On
Versions: 1 2 3 4 5 6 7 8 9 10 11 12 13 14 15 16 17 18 19 20 21 22 23 24 25 26 27 28 29 30 31 32 33 34 35 36 37 38 39 40 41 42 43
000
FTUS45 KBOU 030810 AAA
TAFDEN
TAF AMD
KDEN 030810Z 0308/0412 26007KT P6SM FEW080 BKN110
     FM031100 30008KT P6SM FEW090 SCT120
     FM031500 35015KT P6SM SCT120
     FM032000 02013KT P6SM FEW130 SCT220
     FM040200 14006KT P6SM SCT220
     FM040500 22009KT P6SM FEW220=

USA.gov is the U.S. government's official web portal to all federal, state and local government web resources and services.